sensor_id;sensor_type;location;lat;lon;timestamp;pressure;altitude;pressure_sealevel;temperature;humidity
62031;BME280;62035;52.094;5.112;2023-05-18T00:01:39;102972.13;;;8.01;100.00
62031;BME280;62035;52.094;5.112;2023-05-18T00:04:07;102975.63;;;8.19;100.00
62031;BME280;62035;52.094;5.112;2023-05-18T00:06:36;102974.69;;;8.02;100.00
62031;BME280;62035;52.094;5.112;2023-05-18T00:09:04;102970.94;;;8.07;100.00
62031;BME280;62035;52.094;5.112;2023-05-18T00:11:32;102973.34;;;7.95;100.00
62031;BME280;62035;52.094;5.112;2023-05-18T00:13:59;102979.06;;;8.03;100.00
62031;BME280;62035;52.094;5.112;2023-05-18T00:16:28;102974.91;;;8.15;100.00
62031;BME280;62035;52.094;5.112;2023-05-18T00:18:55;102982.84;;;7.99;100.00
62031;BME280;62035;52.094;5.112;2023-05-18T00:21:23;102982.22;;;7.77;100.00
62031;BME280;62035;52.094;5.112;2023-05-18T00:23:56;102985.75;;;7.78;100.00
62031;BME280;62035;52.094;5.112;2023-05-18T00:26:24;102982.22;;;7.77;100.00
62031;BME280;62035;52.094;5.112;2023-05-18T00:28:52;102982.00;;;7.82;100.00
62031;BME280;62035;52.094;5.112;2023-05-18T00:31:19;102990.25;;;7.76;100.00
62031;BME280;62035;52.094;5.112;2023-05-18T00:33:47;102981.72;;;8.03;100.00
62031;BME280;62035;52.094;5.112;2023-05-18T00:36:14;102976.00;;;7.95;100.00
62031;BME280;62035;52.094;5.112;2023-05-18T00:38:42;102983.16;;;7.93;100.00
62031;BME280;62035;52.094;5.112;2023-05-18T00:41:11;102977.44;;;8.01;100.00
62031;BME280;62035;52.094;5.112;2023-05-18T00:43:39;102976.41;;;8.03;100.00
62031;BME280;62035;52.094;5.112;2023-05-18T00:46:07;102979.56;;;7.94;100.00
62031;BME280;62035;52.094;5.112;2023-05-18T00:48:34;102981.13;;;7.98;100.00
62031;BME280;62035;52.094;5.112;2023-05-18T00:51:02;102981.13;;;7.98;100.00
62031;BME280;62035;52.094;5.112;2023-05-18T00:53:31;102980.63;;;8.08;100.00
62031;BME280;62035;52.094;5.112;2023-05-18T00:55:59;102977.63;;;7.81;100.00
62031;BME280;62035;52.094;5.112;2023-05-18T00:58:28;102982.16;;;7.79;100.00
62031;BME280;62035;52.094;5.112;2023-05-18T01:00:56;102983.78;;;7.64;100.00
62031;BME280;62035;52.094;5.112;2023-05-18T01:03:24;102978.03;;;7.90;100.00
62031;BME280;62035;52.094;5.112;2023-05-18T01:05:55;102984.38;;;8.03;100.00
62031;BME280;62035;52.094;5.112;2023-05-18T01:08:23;102981.44;;;7.92;100.00
62031;BME280;62035;52.094;5.112;2023-05-18T01:10:56;102984.63;;;7.99;100.00
62031;BME280;62035;52.094;5.112;2023-05-18T01:13:38;102982.84;;;7.99;100.00
62031;BME280;62035;52.094;5.112;2023-05-18T01:16:19;102987.53;;;7.94;100.00
62031;BME280;62035;52.094;5.112;2023-05-18T01:18:55;102989.63;;;7.88;100.00
62031;BME280;62035;52.094;5.112;2023-05-18T01:21:40;102991.81;;;7.80;100.00
62031;BME280;62035;52.094;5.112;2023-05-18T01:24:23;102990.09;;;7.96;100.00
62031;BME280;62035;52.094;5.112;2023-05-18T01:26:59;102990.97;;;7.79;100.00
62031;BME280;62035;52.094;5.112;2023-05-18T01:29:29;102989.00;;;7.83;100.00
62031;BME280;62035;52.094;5.112;2023-05-18T01:31:57;102990.41;;;7.73;100.00
62031;BME280;62035;52.094;5.112;2023-05-18T01:34:25;102988.91;;;8.01;100.00
62031;BME280;62035;52.094;5.112;2023-05-18T01:36:53;102985.38;;;8.01;100.00
62031;BME280;62035;52.094;5.112;2023-05-18T01:39:20;102991.56;;;8.01;100.00
62031;BME280;62035;52.094;5.112;2023-05-18T01:41:52;102990.44;;;8.06;100.00
62031;BME280;62035;52.094;5.112;2023-05-18T01:44:29;102994.91;;;8.05;100.00
62031;BME280;62035;52.094;5.112;2023-05-18T01:47:07;102993.97;;;8.06;100.00
62031;BME280;62035;52.094;5.112;2023-05-18T01:49:44;102991.69;;;8.16;100.00
62031;BME280;62035;52.094;5.112;2023-05-18T01:52:17;102994.03;;;8.04;100.00
62031;BME280;62035;52.094;5.112;2023-05-18T01:54:51;102987.09;;;8.02;100.00
62031;BME280;62035;52.094;5.112;2023-05-18T01:57:23;102997.19;;;7.95;100.00
62031;BME280;62035;52.094;5.112;2023-05-18T01:59:56;102992.53;;;7.83;100.00
62031;BME280;62035;52.094;5.112;2023-05-18T02:02:26;102992.59;;;7.99;100.00
62031;BME280;62035;52.094;5.112;2023-05-18T02:04:55;102991.38;;;8.04;100.00
62031;BME280;62035;52.094;5.112;2023-05-18T02:07:22;102985.22;;;8.04;100.00
62031;BME280;62035;52.094;5.112;2023-05-18T02:09:50;102984.44;;;8.19;100.00
62031;BME280;62035;52.094;5.112;2023-05-18T02:12:18;102988.34;;;8.12;100.00
62031;BME280;62035;52.094;5.112;2023-05-18T02:14:45;102985.59;;;8.14;100.00
62031;BME280;62035;52.094;5.112;2023-05-18T02:17:14;102984.50;;;8.18;100.00
62031;BME280;62035;52.094;5.112;2023-05-18T02:19:42;102985.94;;;8.08;100.00
62031;BME280;62035;52.094;5.112;2023-05-18T02:22:10;102979.06;;;8.03;100.00
62031;BME280;62035;52.094;5.112;2023-05-18T02:24:37;102981.28;;;7.95;100.00
62031;BME280;62035;52.094;5.112;2023-05-18T02:27:05;102981.38;;;7.94;100.00
62031;BME280;62035;52.094;5.112;2023-05-18T02:29:33;102979.56;;;7.94;100.00
62031;BME280;62035;52.094;5.112;2023-05-18T02:32:00;102988.78;;;7.70;100.00
62031;BME280;62035;52.094;5.112;2023-05-18T02:34:29;102995.31;;;7.63;100.00
62031;BME280;62035;52.094;5.112;2023-05-18T02:36:58;103000.69;;;7.61;100.00
62031;BME280;62035;52.094;5.112;2023-05-18T02:39:29;102981.59;;;7.89;100.00
62031;BME280;62035;52.094;5.112;2023-05-18T02:41:58;102989.41;;;7.75;100.00
62031;BME280;62035;52.094;5.112;2023-05-18T02:44:26;102992.53;;;7.83;100.00
62031;BME280;62035;52.094;5.112;2023-05-18T02:46:54;102983.31;;;7.73;100.00
62031;BME280;62035;52.094;5.112;2023-05-18T02:49:21;102991.13;;;7.76;100.00
62031;BME280;62035;52.094;5.112;2023-05-18T02:51:50;102992.84;;;7.77;100.00
62031;BME280;62035;52.094;5.112;2023-05-18T02:54:18;102985.66;;;7.79;100.00
62031;BME280;62035;52.094;5.112;2023-05-18T02:56:46;102990.97;;;7.79;100.00
62031;BME280;62035;52.094;5.112;2023-05-18T02:59:13;102996.19;;;7.63;100.00
62031;BME280;62035;52.094;5.112;2023-05-18T03:01:41;102988.47;;;7.42;100.00
62031;BME280;62035;52.094;5.112;2023-05-18T03:04:09;102990.25;;;7.76;100.00
62031;BME280;62035;52.094;5.112;2023-05-18T03:06:36;102981.28;;;7.61;100.00
62031;BME280;62035;52.094;5.112;2023-05-18T03:09:06;102984.03;;;7.59;100.00
62031;BME280;62035;52.094;5.112;2023-05-18T03:11:34;103000.63;;;7.63;100.00
62031;BME280;62035;52.094;5.112;2023-05-18T03:14:01;102977.63;;;7.63;100.00
62031;BME280;62035;52.094;5.112;2023-05-18T03:16:29;102977.31;;;7.18;100.00
62031;BME280;62035;52.094;5.112;2023-05-18T03:18:56;102987.03;;;7.34;100.00
62031;BME280;62035;52.094;5.112;2023-05-18T03:21:26;102986.53;;;7.45;100.00
62031;BME280;62035;52.094;5.112;2023-05-18T03:23:59;102990.78;;;7.30;100.00
62031;BME280;62035;52.094;5.112;2023-05-18T03:26:28;102984.91;;;7.24;100.00
62031;BME280;62035;52.094;5.112;2023-05-18T03:28:56;102984.41;;;7.34;100.00
62031;BME280;62035;52.094;5.112;2023-05-18T03:31:24;102992.00;;;7.23;100.00
62031;BME280;62035;52.094;5.112;2023-05-18T03:33:52;102994.19;;;7.15;100.00
62031;BME280;62035;52.094;5.112;2023-05-18T03:36:19;102991.28;;;7.20;100.00
62031;BME280;62035;52.094;5.112;2023-05-18T03:38:47;102993.00;;;7.21;100.00
62031;BME280;62035;52.094;5.112;2023-05-18T03:41:15;102992.50;;;7.31;100.00
62031;BME280;62035;52.094;5.112;2023-05-18T03:43:44;102987.03;;;7.34;100.00
62031;BME280;62035;52.094;5.112;2023-05-18T03:46:12;102993.47;;;7.12;100.00
62031;BME280;62035;52.094;5.112;2023-05-18T03:48:39;102997.28;;;7.06;100.00
62031;BME280;62035;52.094;5.112;2023-05-18T03:51:07;103001.78;;;7.04;100.00
62031;BME280;62035;52.094;5.112;2023-05-18T03:53:34;102997.06;;;7.11;100.00
62031;BME280;62035;52.094;5.112;2023-05-18T03:56:02;103003.84;;;7.16;100.00
62031;BME280;62035;52.094;5.112;2023-05-18T03:58:29;103003.72;;;7.00;100.00
62031;BME280;62035;52.094;5.112;2023-05-18T04:00:59;103006.94;;;7.07;100.00
62031;BME280;62035;52.094;5.112;2023-05-18T04:03:27;103002.44;;;6.90;100.00
62031;BME280;62035;52.094;5.112;2023-05-18T04:05:55;103001.28;;;6.96;100.00
62031;BME280;62035;52.094;5.112;2023-05-18T04:08:23;103009.59;;;7.24;100.00
62031;BME280;62035;52.094;5.112;2023-05-18T04:10:51;102999.41;;;7.17;100.00
62031;BME280;62035;52.094;5.112;2023-05-18T04:13:18;103002.13;;;7.15;100.00
62031;BME280;62035;52.094;5.112;2023-05-18T04:15:46;102998.28;;;7.40;100.00
62031;BME280;62035;52.094;5.112;2023-05-18T04:18:15;103003.16;;;7.30;100.00
62031;BME280;62035;52.094;5.112;2023-05-18T04:20:43;102998.56;;;7.33;100.00
62031;BME280;62035;52.094;5.112;2023-05-18T04:23:12;103009.25;;;7.32;100.00
62031;BME280;62035;52.094;5.112;2023-05-18T04:25:39;103017.41;;;7.27;100.00
62031;BME280;62035;52.094;5.112;2023-05-18T04:28:07;103006.22;;;7.40;100.00
62031;BME280;62035;52.094;5.112;2023-05-18T04:30:35;103019.25;;;7.61;100.00
62031;BME280;62035;52.094;5.112;2023-05-18T04:33:03;103009.34;;;7.48;100.00
62031;BME280;62035;52.094;5.112;2023-05-18T04:35:33;103016.59;;;7.44;100.00
62031;BME280;62035;52.094;5.112;2023-05-18T04:38:01;103021.81;;;7.46;100.00
62031;BME280;62035;52.094;5.112;2023-05-18T04:40:28;103019.16;;;7.46;100.00
62031;BME280;62035;52.094;5.112;2023-05-18T04:42:58;103020.44;;;7.56;100.00
62031;BME280;62035;52.094;5.112;2023-05-18T04:45:26;103018.38;;;7.61;100.00
62031;BME280;62035;52.094;5.112;2023-05-18T04:47:54;103027.13;;;7.63;100.00
62031;BME280;62035;52.094;5.112;2023-05-18T04:50:23;103027.44;;;7.74;100.00
62031;BME280;62035;52.094;5.112;2023-05-18T04:52:52;103030.41;;;7.85;100.00
62031;BME280;62035;52.094;5.112;2023-05-18T04:55:22;103023.56;;;7.98;100.00
62031;BME280;62035;52.094;5.112;2023-05-18T04:57:52;103029.63;;;7.83;100.00
62031;BME280;62035;52.094;5.112;2023-05-18T05:00:21;103029.28;;;8.07;100.00
62031;BME280;62035;52.094;5.112;2023-05-18T05:02:50;103032.56;;;8.12;100.00
62031;BME280;62035;52.094;5.112;2023-05-18T05:05:19;103033.50;;;8.11;100.00
62031;BME280;62035;52.094;5.112;2023-05-18T05:07:48;103031.91;;;8.41;100.00
62031;BME280;62035;52.094;5.112;2023-05-18T05:10:18;103033.75;;;8.56;100.00
62031;BME280;62035;52.094;5.112;2023-05-18T05:12:47;103038.50;;;8.67;100.00
62031;BME280;62035;52.094;5.112;2023-05-18T05:15:15;103032.19;;;8.52;100.00
62031;BME280;62035;52.094;5.112;2023-05-18T05:17:43;103030.13;;;8.75;100.00
62031;BME280;62035;52.094;5.112;2023-05-18T05:20:12;103021.88;;;8.95;100.00
62031;BME280;62035;52.094;5.112;2023-05-18T05:22:39;103020.50;;;8.88;100.00
62031;BME280;62035;52.094;5.112;2023-05-18T05:25:07;103026.69;;;8.88;100.00
62031;BME280;62035;52.094;5.112;2023-05-18T05:27:37;103026.34;;;9.10;100.00
62031;BME280;62035;52.094;5.112;2023-05-18T05:30:05;103028.75;;;8.99;100.00
62031;BME280;62035;52.094;5.112;2023-05-18T05:32:34;103017.81;;;9.51;100.00
62031;BME280;62035;52.094;5.112;2023-05-18T05:35:02;103017.75;;;10.11;100.00
62031;BME280;62035;52.094;5.112;2023-05-18T05:37:30;103017.25;;;10.48;100.00
62031;BME280;62035;52.094;5.112;2023-05-18T05:39:57;103019.91;;;10.34;100.00
62031;BME280;62035;52.094;5.112;2023-05-18T05:42:25;103020.84;;;10.47;100.00
62031;BME280;62035;52.094;5.112;2023-05-18T05:44:54;103018.19;;;10.47;100.00
62031;BME280;62035;52.094;5.112;2023-05-18T05:47:22;103017.91;;;10.66;100.00
62031;BME280;62035;52.094;5.112;2023-05-18T05:49:49;103020.47;;;10.67;100.00
62031;BME280;62035;52.094;5.112;2023-05-18T05:52:17;103024.00;;;10.68;100.00
62031;BME280;62035;52.094;5.112;2023-05-18T05:54:44;103021.13;;;10.57;100.00
62031;BME280;62035;52.094;5.112;2023-05-18T05:57:12;103028.66;;;10.22;100.00
62031;BME280;62035;52.094;5.112;2023-05-18T05:59:39;103028.94;;;10.31;100.00
62031;BME280;62035;52.094;5.112;2023-05-18T06:02:08;103024.75;;;10.27;100.00
62031;BME280;62035;52.094;5.112;2023-05-18T06:04:37;103014.88;;;10.29;100.00
62031;BME280;62035;52.094;5.112;2023-05-18T06:07:05;103025.81;;;10.39;100.00
62031;BME280;62035;52.094;5.112;2023-05-18T06:09:33;103028.31;;;10.83;100.00
62031;BME280;62035;52.094;5.112;2023-05-18T06:12:00;103028.91;;;10.88;100.00
62031;BME280;62035;52.094;5.112;2023-05-18T06:14:28;103029.88;;;10.73;100.00
62031;BME280;62035;52.094;5.112;2023-05-18T06:16:56;103034.31;;;11.55;100.00
62031;BME280;62035;52.094;5.112;2023-05-18T06:19:26;103029.09;;;11.93;100.00
62031;BME280;62035;52.094;5.112;2023-05-18T06:21:53;103026.41;;;12.56;100.00
62031;BME280;62035;52.094;5.112;2023-05-18T06:24:21;103032.34;;;12.85;100.00
62031;BME280;62035;52.094;5.112;2023-05-18T06:26:49;103035.19;;;12.95;100.00
62031;BME280;62035;52.094;5.112;2023-05-18T06:29:16;103034.94;;;13.47;100.00
62031;BME280;62035;52.094;5.112;2023-05-18T06:31:44;103035.25;;;13.43;100.00
62031;BME280;62035;52.094;5.112;2023-05-18T06:34:11;103023.16;;;13.61;100.00
62031;BME280;62035;52.094;5.112;2023-05-18T06:36:40;103034.59;;;13.87;100.00
62031;BME280;62035;52.094;5.112;2023-05-18T06:39:08;103036.13;;;13.43;100.00
62031;BME280;62035;52.094;5.112;2023-05-18T06:41:36;103038.75;;;13.56;100.00
62031;BME280;62035;52.094;5.112;2023-05-18T06:44:03;103038.41;;;13.37;100.00
62031;BME280;62035;52.094;5.112;2023-05-18T06:46:31;103046.56;;;13.22;100.00
62031;BME280;62035;52.094;5.112;2023-05-18T06:48:59;103037.88;;;13.31;100.00
62031;BME280;62035;52.094;5.112;2023-05-18T06:51:27;103039.28;;;13.72;100.00
62031;BME280;62035;52.094;5.112;2023-05-18T06:53:56;103029.94;;;13.78;100.00
62031;BME280;62035;52.094;5.112;2023-05-18T06:56:23;103042.66;;;13.98;100.00
62031;BME280;62035;52.094;5.112;2023-05-18T06:58:51;103042.25;;;13.32;100.00
62031;BME280;62035;52.094;5.112;2023-05-18T07:01:19;103046.44;;;12.87;100.00
62031;BME280;62035;52.094;5.112;2023-05-18T07:03:46;103045.97;;;13.06;100.00
62031;BME280;62035;52.094;5.112;2023-05-18T07:06:14;103043.19;;;13.44;100.00
62031;BME280;62035;52.094;5.112;2023-05-18T07:08:43;103052.56;;;13.50;100.00
62031;BME280;62035;52.094;5.112;2023-05-18T07:11:13;103043.53;;;13.16;100.00
62031;BME280;62035;52.094;5.112;2023-05-18T07:13:41;103044.03;;;13.08;100.00
62031;BME280;62035;52.094;5.112;2023-05-18T07:16:09;103048.31;;;12.74;100.00
62031;BME280;62035;52.094;5.112;2023-05-18T07:18:37;103047.47;;;12.61;100.00
62031;BME280;62035;52.094;5.112;2023-05-18T07:21:07;103046.06;;;12.55;100.00
62031;BME280;62035;52.094;5.112;2023-05-18T07:23:34;103051.31;;;12.31;100.00
62031;BME280;62035;52.094;5.112;2023-05-18T07:26:02;103057.94;;;12.51;100.00
62031;BME280;62035;52.094;5.112;2023-05-18T07:28:31;103059.66;;;12.27;100.00
62031;BME280;62035;52.094;5.112;2023-05-18T07:30:58;103058.13;;;12.48;100.00
62031;BME280;62035;52.094;5.112;2023-05-18T07:33:26;103058.28;;;12.34;100.00
62031;BME280;62035;52.094;5.112;2023-05-18T07:35:53;103060.91;;;12.72;100.00
62031;BME280;62035;52.094;5.112;2023-05-18T07:38:21;103048.88;;;12.90;100.00
62031;BME280;62035;52.094;5.112;2023-05-18T07:40:49;103045.97;;;13.06;100.00
62031;BME280;62035;52.094;5.112;2023-05-18T07:43:16;103050.00;;;13.24;100.00
62031;BME280;62035;52.094;5.112;2023-05-18T07:45:45;103057.19;;;13.48;100.00
62031;BME280;62035;52.094;5.112;2023-05-18T07:48:13;103058.81;;;13.38;100.00
62031;BME280;62035;52.094;5.112;2023-05-18T07:50:40;103063.31;;;13.61;100.00
62031;BME280;62035;52.094;5.112;2023-05-18T07:53:08;103056.72;;;13.54;100.00
62031;BME280;62035;52.094;5.112;2023-05-18T07:55:35;103067.66;;;13.51;100.00
62031;BME280;62035;52.094;5.112;2023-05-18T07:58:03;103061.81;;;13.81;100.00
62031;BME280;62035;52.094;5.112;2023-05-18T08:00:31;103064.88;;;13.87;100.00
62031;BME280;62035;52.094;5.112;2023-05-18T08:03:00;103063.50;;;13.47;100.00
62031;BME280;62035;52.094;5.112;2023-05-18T08:05:28;103071.00;;;13.42;100.00
62031;BME280;62035;52.094;5.112;2023-05-18T08:07:56;103058.47;;;13.66;100.00
62031;BME280;62035;52.094;5.112;2023-05-18T08:10:23;103065.78;;;13.99;100.00
62031;BME280;62035;52.094;5.112;2023-05-18T08:12:51;103076.34;;;14.00;100.00
62031;BME280;62035;52.094;5.112;2023-05-18T08:15:19;103068.00;;;14.16;100.00
62031;BME280;62035;52.094;5.112;2023-05-18T08:17:46;103076.16;;;14.15;100.00
62031;BME280;62035;52.094;5.112;2023-05-18T08:20:15;103072.00;;;13.76;100.00
62031;BME280;62035;52.094;5.112;2023-05-18T08:22:44;103072.00;;;14.11;100.00
62031;BME280;62035;52.094;5.112;2023-05-18T08:25:11;103073.69;;;14.12;100.00
62031;BME280;62035;52.094;5.112;2023-05-18T08:27:39;103067.91;;;13.83;100.00
62031;BME280;62035;52.094;5.112;2023-05-18T08:30:07;103062.81;;;14.37;100.00
62031;BME280;62035;52.094;5.112;2023-05-18T08:32:36;103069.00;;;14.26;100.00
62031;BME280;62035;52.094;5.112;2023-05-18T08:35:04;103067.22;;;14.49;100.00
62031;BME280;62035;52.094;5.112;2023-05-18T08:37:34;103065.75;;;14.45;100.00
62031;BME280;62035;52.094;5.112;2023-05-18T08:40:02;103057.47;;;14.48;100.00
62031;BME280;62035;52.094;5.112;2023-05-18T08:42:34;103046.78;;;14.59;100.00
62031;BME280;62035;52.094;5.112;2023-05-18T08:45:09;103047.22;;;14.42;100.00
62031;BME280;62035;52.094;5.112;2023-05-18T08:47:39;103064.13;;;14.31;100.00
62031;BME280;62035;52.094;5.112;2023-05-18T08:50:08;103055.78;;;14.58;100.00
62031;BME280;62035;52.094;5.112;2023-05-18T08:52:41;103043.56;;;14.88;100.00
62031;BME280;62035;52.094;5.112;2023-05-18T08:55:14;103059.44;;;14.68;100.00
62031;BME280;62035;52.094;5.112;2023-05-18T08:57:45;103047.47;;;14.39;100.00
62031;BME280;62035;52.094;5.112;2023-05-18T09:00:21;103043.72;;;14.53;100.00
62031;BME280;62035;52.094;5.112;2023-05-18T09:02:49;103053.22;;;14.79;100.00
62031;BME280;62035;52.094;5.112;2023-05-18T09:05:17;103051.59;;;14.99;100.00
62031;BME280;62035;52.094;5.112;2023-05-18T09:07:48;103042.34;;;15.57;100.00
62031;BME280;62035;52.094;5.112;2023-05-18T09:10:17;103045.63;;;15.50;98.92
62031;BME280;62035;52.094;5.112;2023-05-18T09:12:47;103035.00;;;15.16;98.89
62031;BME280;62035;52.094;5.112;2023-05-18T09:15:17;103033.38;;;14.59;100.00
62031;BME280;62035;52.094;5.112;2023-05-18T09:17:44;103036.00;;;14.93;100.00
62031;BME280;62035;52.094;5.112;2023-05-18T09:20:12;103035.75;;;15.18;99.12
62031;BME280;62035;52.094;5.112;2023-05-18T09:22:41;103023.97;;;15.30;96.97
62031;BME280;62035;52.094;5.112;2023-05-18T09:25:11;103027.75;;;15.71;94.67
62031;BME280;62035;52.094;5.112;2023-05-18T09:27:39;103023.09;;;15.73;92.36
62031;BME280;62035;52.094;5.112;2023-05-18T09:30:09;103017.41;;;15.87;90.20
62031;BME280;62035;52.094;5.112;2023-05-18T09:32:38;103009.84;;;16.02;90.65
62031;BME280;62035;52.094;5.112;2023-05-18T09:35:07;103007.97;;;15.93;90.43
62031;BME280;62035;52.094;5.112;2023-05-18T09:37:35;103002.28;;;15.86;91.87
62031;BME280;62035;52.094;5.112;2023-05-18T09:40:07;103013.44;;;15.50;90.18
62031;BME280;62035;52.094;5.112;2023-05-18T09:42:37;103014.34;;;15.28;93.73
62031;BME280;62035;52.094;5.112;2023-05-18T09:45:15;103002.19;;;15.56;92.06
62031;BME280;62035;52.094;5.112;2023-05-18T09:47:44;103008.31;;;15.47;91.21
62031;BME280;62035;52.094;5.112;2023-05-18T09:50:12;103002.47;;;15.42;90.77
62031;BME280;62035;52.094;5.112;2023-05-18T09:52:40;103000.78;;;15.73;89.05
62031;BME280;62035;52.094;5.112;2023-05-18T09:55:09;103013.59;;;15.69;88.63
62031;BME280;62035;52.094;5.112;2023-05-18T09:57:40;103002.66;;;15.61;92.54
62031;BME280;62035;52.094;5.112;2023-05-18T10:00:10;103004.44;;;15.92;90.72
62031;BME280;62035;52.094;5.112;2023-05-18T10:02:40;103001.00;;;16.32;87.41
62031;BME280;62035;52.094;5.112;2023-05-18T10:05:20;103001.19;;;16.50;87.29
62031;BME280;62035;52.094;5.112;2023-05-18T10:07:49;102990.41;;;16.71;85.12
62031;BME280;62035;52.094;5.112;2023-05-18T10:10:18;102998.75;;;16.67;83.40
62031;BME280;62035;52.094;5.112;2023-05-18T10:12:51;102995.63;;;16.42;84.01
62031;BME280;62035;52.094;5.112;2023-05-18T10:15:21;102993.00;;;16.51;85.82
62031;BME280;62035;52.094;5.112;2023-05-18T10:17:50;102989.44;;;16.72;83.65
62031;BME280;62035;52.094;5.112;2023-05-18T10:20:23;102986.09;;;16.98;80.40
62031;BME280;62035;52.094;5.112;2023-05-18T10:22:54;102983.31;;;16.29;83.24
62031;BME280;62035;52.094;5.112;2023-05-18T10:25:25;102988.56;;;16.41;82.18
62031;BME280;62035;52.094;5.112;2023-05-18T10:28:06;102980.38;;;16.42;84.33
62031;BME280;62035;52.094;5.112;2023-05-18T10:30:37;102982.59;;;16.07;86.49
62031;BME280;62035;52.094;5.112;2023-05-18T10:33:07;102974.09;;;16.01;87.08
62031;BME280;62035;52.094;5.112;2023-05-18T10:35:37;102976.28;;;16.38;85.90
62031;BME280;62035;52.094;5.112;2023-05-18T10:38:05;102978.28;;;16.15;85.94
62031;BME280;62035;52.094;5.112;2023-05-18T10:40:33;102973.38;;;15.99;86.49
62031;BME280;62035;52.094;5.112;2023-05-18T10:43:05;102974.53;;;16.07;87.86
62031;BME280;62035;52.094;5.112;2023-05-18T10:45:34;102969.53;;;16.53;87.36
62031;BME280;62035;52.094;5.112;2023-05-18T10:48:04;102963.81;;;16.67;86.46
62031;BME280;62035;52.094;5.112;2023-05-18T10:50:37;102973.59;;;16.48;87.21
62031;BME280;62035;52.094;5.112;2023-05-18T10:53:07;102974.66;;;16.26;86.55
62031;BME280;62035;52.094;5.112;2023-05-18T10:55:36;102961.81;;;16.29;86.72
62031;BME280;62035;52.094;5.112;2023-05-18T10:58:08;102969.88;;;16.29;88.19
62031;BME280;62035;52.094;5.112;2023-05-18T11:00:40;102966.78;;;16.34;86.90
62031;BME280;62035;52.094;5.112;2023-05-18T11:03:12;102962.47;;;16.62;83.91
62031;BME280;62035;52.094;5.112;2023-05-18T11:05:41;102966.75;;;16.64;84.60
62031;BME280;62035;52.094;5.112;2023-05-18T11:08:08;102956.50;;;16.98;83.16
62031;BME280;62035;52.094;5.112;2023-05-18T11:10:40;102965.38;;;16.80;81.00
62031;BME280;62035;52.094;5.112;2023-05-18T11:13:13;102960.88;;;16.99;82.17
62031;BME280;62035;52.094;5.112;2023-05-18T11:16:03;102958.63;;;17.05;82.74
62031;BME280;62035;52.094;5.112;2023-05-18T11:18:38;102954.41;;;16.62;82.72
62031;BME280;62035;52.094;5.112;2023-05-18T11:21:21;102958.94;;;16.61;81.24
62031;BME280;62035;52.094;5.112;2023-05-18T11:24:16;102955.38;;;17.01;83.54
62031;BME280;62035;52.094;5.112;2023-05-18T11:26:46;102952.41;;;17.04;81.48
62031;BME280;62035;52.094;5.112;2023-05-18T11:29:17;102942.19;;;16.98;81.26
62031;BME280;62035;52.094;5.112;2023-05-18T11:31:49;102941.50;;;17.34;82.01
62031;BME280;62035;52.094;5.112;2023-05-18T11:34:40;102934.25;;;17.45;79.70
62031;BME280;62035;52.094;5.112;2023-05-18T11:37:12;102933.84;;;17.30;78.95
62031;BME280;62035;52.094;5.112;2023-05-18T11:39:41;102943.63;;;17.50;78.44
62031;BME280;62035;52.094;5.112;2023-05-18T11:42:19;102936.22;;;17.81;77.58
62031;BME280;62035;52.094;5.112;2023-05-18T11:44:52;102938.53;;;18.04;73.23
62031;BME280;62035;52.094;5.112;2023-05-18T11:47:23;102936.09;;;16.96;78.26
62031;BME280;62035;52.094;5.112;2023-05-18T11:49:56;102930.97;;;17.60;74.32
62031;BME280;62035;52.094;5.112;2023-05-18T11:52:25;102936.75;;;17.94;72.92
62031;BME280;62035;52.094;5.112;2023-05-18T11:54:54;102937.91;;;17.82;72.66
62031;BME280;62035;52.094;5.112;2023-05-18T11:57:24;102935.44;;;18.36;71.75
62031;BME280;62035;52.094;5.112;2023-05-18T11:59:57;102929.56;;;18.40;71.42
62031;BME280;62035;52.094;5.112;2023-05-18T12:02:30;102931.13;;;17.69;71.59
62031;BME280;62035;52.094;5.112;2023-05-18T12:05:00;102923.34;;;17.56;73.89
62031;BME280;62035;52.094;5.112;2023-05-18T12:07:29;102920.66;;;17.37;74.89
62031;BME280;62035;52.094;5.112;2023-05-18T12:09:57;102910.47;;;18.61;70.79
62031;BME280;62035;52.094;5.112;2023-05-18T12:12:27;102915.81;;;18.71;69.09
62031;BME280;62035;52.094;5.112;2023-05-18T12:14:59;102910.66;;;18.95;66.69
62031;BME280;62035;52.094;5.112;2023-05-18T12:17:36;102902.13;;;19.43;65.33
62031;BME280;62035;52.094;5.112;2023-05-18T12:20:07;102906.66;;;19.60;64.30
62031;BME280;62035;52.094;5.112;2023-05-18T12:22:37;102890.97;;;19.38;65.24
62031;BME280;62035;52.094;5.112;2023-05-18T12:25:06;102897.72;;;18.98;66.21
62031;BME280;62035;52.094;5.112;2023-05-18T12:27:36;102898.97;;;18.59;68.29
62031;BME280;62035;52.094;5.112;2023-05-18T12:30:08;102893.53;;;19.22;67.21
62031;BME280;62035;52.094;5.112;2023-05-18T12:32:38;102893.88;;;19.45;64.63
62031;BME280;62035;52.094;5.112;2023-05-18T12:35:10;102892.03;;;19.45;64.38
62031;BME280;62035;52.094;5.112;2023-05-18T12:37:40;102899.91;;;19.56;62.85
62031;BME280;62035;52.094;5.112;2023-05-18T12:40:10;102895.50;;;18.76;64.72
62031;BME280;62035;52.094;5.112;2023-05-18T12:42:38;102891.13;;;19.37;64.07
62031;BME280;62035;52.094;5.112;2023-05-18T12:45:09;102881.84;;;19.57;63.10
62031;BME280;62035;52.094;5.112;2023-05-18T12:47:40;102876.84;;;19.70;62.82
62031;BME280;62035;52.094;5.112;2023-05-18T12:50:09;102872.41;;;19.61;63.93
62031;BME280;62035;52.094;5.112;2023-05-18T12:52:38;102881.16;;;19.55;63.37
62031;BME280;62035;52.094;5.112;2023-05-18T12:55:07;102882.13;;;18.92;65.16
62031;BME280;62035;52.094;5.112;2023-05-18T12:57:36;102882.16;;;19.36;64.21
62031;BME280;62035;52.094;5.112;2023-05-18T13:00:11;102877.16;;;19.59;61.54